createdAt,value
2019-01-25T00:02:46.931Z,27.87
2019-01-25T00:07:51.752Z,29.17
2019-01-25T00:12:56.531Z,29.10
2019-01-25T00:18:01.360Z,27.47
2019-01-25T00:23:06.153Z,32.13
2019-01-25T00:28:10.949Z,31.13
2019-01-25T00:33:15.654Z,29.47
2019-01-25T00:38:20.487Z,29.10
2019-01-25T00:43:25.202Z,31.10
2019-01-25T00:48:30.031Z,30.27
2019-01-25T00:53:34.839Z,34.13
2019-01-25T00:58:39.540Z,26.60
2019-01-25T01:03:44.440Z,26.40
2019-01-25T01:08:49.216Z,31.00
2019-01-25T01:13:53.922Z,26.90
2019-01-25T01:18:58.693Z,26.23
2019-01-25T01:24:03.488Z,26.20
2019-01-25T01:29:08.262Z,29.67
2019-01-25T01:34:13.031Z,29.00
2019-01-25T01:39:17.724Z,28.10
2019-01-25T01:44:22.456Z,30.43
2019-01-25T01:49:27.161Z,28.00
2019-01-25T01:54:31.851Z,30.67
2019-01-25T01:59:36.572Z,32.73
2019-01-25T02:04:41.383Z,29.50
2019-01-25T02:09:46.097Z,28.00
2019-01-25T02:14:50.809Z,26.93
2019-01-25T02:19:55.549Z,27.17
2019-01-25T02:25:00.261Z,29.83
2019-01-25T02:30:08.303Z,27.90
2019-01-25T02:35:13.099Z,25.68
2019-01-25T02:40:19.868Z,31.13
2019-01-25T02:45:24.654Z,31.17
2019-01-25T02:50:29.374Z,30.60
2019-01-25T02:55:34.153Z,29.60
2019-01-25T03:00:39.003Z,30.47
2019-01-25T03:05:43.753Z,29.80
2019-01-25T03:10:48.680Z,26.00
2019-01-25T03:15:53.368Z,32.23
2019-01-25T03:20:58.150Z,29.90
2019-01-25T03:26:02.940Z,30.03
2019-01-25T03:31:07.682Z,28.97
2019-01-25T03:36:12.426Z,30.33
2019-01-25T03:41:17.286Z,34.13
2019-01-25T03:46:22.091Z,28.53
2019-01-25T03:51:26.794Z,29.73
2019-01-25T03:56:31.483Z,33.40
2019-01-25T04:01:36.316Z,28.03
2019-01-25T04:06:40.962Z,28.47
2019-01-25T04:11:45.731Z,27.67
2019-01-25T04:16:50.503Z,28.80
2019-01-25T04:21:55.215Z,28.53
2019-01-25T04:27:00.034Z,26.40
2019-01-25T04:32:04.946Z,32.67
2019-01-25T04:37:09.806Z,31.90
2019-01-25T04:42:14.506Z,26.60
2019-01-25T04:47:26.671Z,28.67
2019-01-25T04:52:31.466Z,27.40
2019-01-25T04:57:36.158Z,27.97
2019-01-25T05:02:40.946Z,29.30
2019-01-25T05:07:45.724Z,26.83
2019-01-25T05:12:53.931Z,30.23
2019-01-25T05:17:58.736Z,31.07
2019-01-25T05:23:03.792Z,31.33
2019-01-25T05:28:16.803Z,28.50
2019-01-25T05:33:21.647Z,33.13
2019-01-25T05:38:27.392Z,29.30
2019-01-25T05:43:42.785Z,31.13
2019-01-25T05:48:47.517Z,30.13
2019-01-25T05:53:53.116Z,33.63
2019-01-25T05:58:57.822Z,29.17
2019-01-25T06:04:02.596Z,28.80
2019-01-25T06:09:08.542Z,32.73
2019-01-25T06:14:15.437Z,30.87
2019-01-25T06:19:20.213Z,24.40
2019-01-25T06:24:24.945Z,30.33
2019-01-25T06:29:33.065Z,31.60
2019-01-25T06:34:37.883Z,37.27
2019-01-25T06:39:42.643Z,31.77
2019-01-25T06:44:47.339Z,30.20
2019-01-25T06:49:52.156Z,29.07
2019-01-25T06:54:56.944Z,30.20
2019-01-25T07:00:01.662Z,26.47
2019-01-25T07:05:07.478Z,31.53
2019-01-25T07:10:15.829Z,34.37
2019-01-25T07:15:22.785Z,26.42
2019-01-25T07:20:27.484Z,32.93
2019-01-25T07:25:32.407Z,28.07
2019-01-25T07:30:37.304Z,29.63
2019-01-25T07:35:41.991Z,28.90
2019-01-25T07:40:46.874Z,28.47
2019-01-25T07:45:51.600Z,27.20
2019-01-25T07:50:56.320Z,32.10
2019-01-25T07:56:01.163Z,29.73
2019-01-25T08:01:06.034Z,29.17
2019-01-25T08:06:10.828Z,29.63
2019-01-25T08:11:15.770Z,33.13
2019-01-25T08:16:20.505Z,31.17
2019-01-25T08:21:25.215Z,37.17
2019-01-25T08:26:29.999Z,37.87
2019-01-25T08:31:34.765Z,34.00
2019-01-25T08:36:39.527Z,37.80
2019-01-25T08:41:44.234Z,37.27
2019-01-25T08:46:48.966Z,39.10
2019-01-25T08:51:53.807Z,33.10
2019-01-25T08:56:58.594Z,38.30
2019-01-25T09:02:03.455Z,39.15
2019-01-25T09:07:08.249Z,37.83
2019-01-25T09:12:13.024Z,36.83
2019-01-25T09:17:17.709Z,35.03
2019-01-25T09:22:22.450Z,38.97
2019-01-25T09:27:27.141Z,33.80
2019-01-25T09:32:31.913Z,46.60
2019-01-25T09:37:36.716Z,37.33
2019-01-25T09:42:41.420Z,37.67
2019-01-25T09:47:46.116Z,38.43
2019-01-25T09:52:50.891Z,38.97
2019-01-25T09:57:56.325Z,37.03
2019-01-25T10:03:02.007Z,38.63
2019-01-25T10:08:06.869Z,40.23
2019-01-25T10:13:11.583Z,45.17
2019-01-25T10:18:16.275Z,42.43
2019-01-25T10:23:20.975Z,42.10
2019-01-25T10:28:25.676Z,43.77
2019-01-25T10:33:30.362Z,43.87
2019-01-25T10:38:35.137Z,42.83
2019-01-25T10:43:39.820Z,47.40
2019-01-25T10:48:44.527Z,44.27
2019-01-25T10:53:49.236Z,42.00
2019-01-25T10:58:53.961Z,45.08
2019-01-25T11:03:58.684Z,47.40
2019-01-25T11:09:04.937Z,47.83
2019-01-25T11:14:09.792Z,47.00
2019-01-25T11:19:14.492Z,48.47
2019-01-25T11:24:20.162Z,39.23
2019-01-25T11:29:25.022Z,42.17
2019-01-25T11:34:33.108Z,42.57
2019-01-25T11:39:36.154Z,42.17
2019-01-25T11:44:42.109Z,40.70
2019-01-25T11:49:46.936Z,36.13
2019-01-25T11:54:51.755Z,35.83
2019-01-25T11:59:56.630Z,35.27
2019-01-25T12:05:01.394Z,36.97
2019-01-25T12:10:08.230Z,36.87
2019-01-25T12:15:16.104Z,37.87
2019-01-25T12:20:28.408Z,32.50
2019-01-25T12:25:33.360Z,37.03
2019-01-25T12:30:39.494Z,34.50
2019-01-25T12:35:44.997Z,38.40
2019-01-25T12:40:49.739Z,38.83
2019-01-25T12:45:54.491Z,36.23
2019-01-25T12:51:18.456Z,34.43
2019-01-25T12:56:23.182Z,31.23
2019-01-25T13:01:29.648Z,36.70
2019-01-25T13:06:34.587Z,34.30
2019-01-25T13:11:39.488Z,35.20
2019-01-25T13:16:44.364Z,34.93
2019-01-25T13:21:49.547Z,33.53
2019-01-25T13:26:54.399Z,35.78
2019-01-25T13:32:00.950Z,35.70
2019-01-25T13:37:05.969Z,38.60
2019-01-25T13:42:10.928Z,37.10
2019-01-25T13:47:15.739Z,39.23
2019-01-25T13:52:20.485Z,43.20
2019-01-25T13:57:25.261Z,41.67
2019-01-25T14:02:30.134Z,40.90
2019-01-25T14:07:35.045Z,43.93
2019-01-25T14:12:39.886Z,46.50
2019-01-25T14:17:44.710Z,43.47
2019-01-25T14:22:50.509Z,47.93
2019-01-25T14:27:55.563Z,44.50
2019-01-25T14:33:00.490Z,38.93
2019-01-25T14:38:06.160Z,43.60
2019-01-25T14:43:11.731Z,46.93
2019-01-25T14:48:16.540Z,49.73
2019-01-25T14:53:21.342Z,42.30
2019-01-25T14:58:26.051Z,40.88
2019-01-25T15:03:30.835Z,39.13
2019-01-25T15:08:35.581Z,38.67
2019-01-25T15:13:40.445Z,44.17
2019-01-25T15:18:45.219Z,45.20
2019-01-25T15:23:49.968Z,50.30
2019-01-25T15:28:54.945Z,53.90
2019-01-25T15:33:59.825Z,51.63
2019-01-25T15:39:07.280Z,48.43
2019-01-25T15:44:12.164Z,55.83
2019-01-25T15:49:18.941Z,52.43
2019-01-25T15:54:23.861Z,51.43
2019-01-25T15:59:29.209Z,51.00
2019-01-25T16:04:34.974Z,46.20
2019-01-25T16:09:41.276Z,51.27
2019-01-25T16:14:46.059Z,50.20
2019-01-25T16:19:52.225Z,48.50
2019-01-25T16:24:57.271Z,48.43
2019-01-25T16:30:02.222Z,54.73
2019-01-25T16:35:07.702Z,45.23
2019-01-25T16:40:15.818Z,54.13
2019-01-25T16:45:23.803Z,49.13
2019-01-25T16:50:29.195Z,49.50
2019-01-25T16:55:34.519Z,55.37
2019-01-25T17:00:47.440Z,54.63
2019-01-25T17:05:52.896Z,47.87
2019-01-25T17:10:57.761Z,46.80
2019-01-25T17:16:02.542Z,44.07
2019-01-25T17:21:07.391Z,55.93
2019-01-25T17:26:12.247Z,55.40
2019-01-25T17:31:17.839Z,44.97
2019-01-25T17:36:23.455Z,49.90
2019-01-25T17:41:28.815Z,46.20
2019-01-25T17:46:34.068Z,45.60
2019-01-25T17:51:39.129Z,38.53
2019-01-25T17:56:44.140Z,39.90
2019-01-25T18:01:49.741Z,32.50
2019-01-25T18:06:54.979Z,28.47
2019-01-25T18:12:00.183Z,25.97
2019-01-25T18:17:05.664Z,27.80
2019-01-25T18:22:11.226Z,23.50
2019-01-25T18:27:16.829Z,19.73
2019-01-25T18:32:22.984Z,23.00
2019-01-25T18:37:28.724Z,18.57
2019-01-25T18:42:35.463Z,20.57
2019-01-25T18:47:41.340Z,26.87
2019-01-25T18:52:47.168Z,24.77
2019-01-25T18:57:53.760Z,24.10
2019-01-25T19:02:59.842Z,24.93
2019-01-25T19:08:06.567Z,20.87
2019-01-25T19:13:13.047Z,24.00
2019-01-25T19:18:18.927Z,21.80
2019-01-25T19:23:25.247Z,18.97
2019-01-25T19:28:30.992Z,22.37
2019-01-25T19:33:36.487Z,23.13
2019-01-25T19:38:42.115Z,22.00
2019-01-25T19:43:48.081Z,21.50
2019-01-25T19:48:54.808Z,23.50
2019-01-25T19:54:02.029Z,22.27
2019-01-25T19:59:08.072Z,26.70
2019-01-25T20:04:14.679Z,22.37
2019-01-25T20:09:21.476Z,23.23
2019-01-25T20:14:27.719Z,18.30
2019-01-25T20:19:34.124Z,20.97
2019-01-25T20:24:40.204Z,19.77
2019-01-25T20:29:46.110Z,26.03
2019-01-25T20:34:51.818Z,22.47
2019-01-25T20:39:57.600Z,22.57
2019-01-25T20:45:04.103Z,27.13
2019-01-25T20:50:13.664Z,23.20
2019-01-25T20:55:19.541Z,25.87
2019-01-25T21:00:31.191Z,22.47
2019-01-25T21:05:37.136Z,21.53
2019-01-25T21:10:43.201Z,20.53
2019-01-25T21:15:49.096Z,22.93
2019-01-25T21:20:54.807Z,21.83
2019-01-25T21:26:00.720Z,21.93
2019-01-25T21:31:06.272Z,24.17
2019-01-25T21:36:12.258Z,21.17
2019-01-25T21:41:18.092Z,22.60
2019-01-25T21:46:24.059Z,25.57
2019-01-25T21:51:30.047Z,21.13
2019-01-25T21:56:35.548Z,23.07
2019-01-25T22:01:40.848Z,22.53
2019-01-25T22:06:45.777Z,20.93
2019-01-25T22:11:50.644Z,25.03
2019-01-25T22:16:55.817Z,22.43
2019-01-25T22:22:00.631Z,22.50
2019-01-25T22:27:05.448Z,24.90
2019-01-25T22:32:10.264Z,23.13
2019-01-25T22:37:15.263Z,24.93
2019-01-25T22:42:20.122Z,26.20
2019-01-25T22:47:24.836Z,27.20
2019-01-25T22:52:29.621Z,24.43
2019-01-25T22:57:34.441Z,24.90
2019-01-25T23:02:39.476Z,23.97
2019-01-25T23:07:44.221Z,30.80
2019-01-25T23:12:49.433Z,20.50
2019-01-25T23:17:54.189Z,27.10
2019-01-25T23:22:59.013Z,25.70
2019-01-25T23:28:03.728Z,29.43
2019-01-25T23:33:08.533Z,31.77
2019-01-25T23:38:13.269Z,30.73
2019-01-25T23:43:17.975Z,28.83
2019-01-25T23:48:22.758Z,26.80
2019-01-25T23:53:27.568Z,26.00
2019-01-25T23:58:32.354Z,28.70
